Pricedale, Pennsylvania
Current Conditions -  °F | °C
As of 3:53 PM on Sunday 23 Nov 2014 (Local Time) from KAGC Reporting Station
Few Clouds Few Clouds  
Wind Chill: 63°   Ceiling: Unl
Heat Index: 63°   Visibility: 10mi
Dew Point: 42°   Wind: 9mph
Humidity: 46%   Direction: 130°SE
Pressure: 29.86"   Gusts: NA
Location:  40.13°N, 79.84°W
Report Text: KAGC 232053Z 13008KT 10SM FEW080 17/06 A2986 RMK AO2 SLP114 T01720056 58039
Loading
Personal Weather Stations






























Interactive Weather Map New forecast layout! Learn more

10-Day Weather Forecast

Advertisements
Track Severe Weather on mobile